sensor_id;sensor_type;location;lat;lon;timestamp;pressure;altitude;pressure_sealevel;temperature;humidity
53960;BME280;39866;48.638;-2.020;2022-08-11T00:01:48;101681.25;;;27.70;43.29
53960;BME280;39866;48.638;-2.020;2022-08-11T00:04:13;101684.13;;;27.68;43.13
53960;BME280;39866;48.638;-2.020;2022-08-11T00:06:40;101682.25;;;27.69;43.20
53960;BME280;39866;48.638;-2.020;2022-08-11T00:09:09;101678.16;;;27.63;43.10
53960;BME280;39866;48.638;-2.020;2022-08-11T00:11:45;101679.03;;;27.63;43.08
53960;BME280;39866;48.638;-2.020;2022-08-11T00:14:26;101676.28;;;27.63;43.08
53960;BME280;39866;48.638;-2.020;2022-08-11T00:16:58;101681.66;;;27.65;42.61
53960;BME280;39866;48.638;-2.020;2022-08-11T00:19:39;101666.63;;;27.59;42.88
53960;BME280;39866;48.638;-2.020;2022-08-11T00:22:07;101665.03;;;27.57;42.72
53960;BME280;39866;48.638;-2.020;2022-08-11T00:24:36;101670.50;;;27.57;42.98
53960;BME280;39866;48.638;-2.020;2022-08-11T00:27:02;101667.78;;;27.57;42.62
53960;BME280;39866;48.638;-2.020;2022-08-11T00:29:28;101675.13;;;27.56;42.68
53960;BME280;39866;48.638;-2.020;2022-08-11T00:31:55;101677.97;;;27.55;42.63
53960;BME280;39866;48.638;-2.020;2022-08-11T00:34:24;101681.69;;;27.54;42.45
53960;BME280;39866;48.638;-2.020;2022-08-11T00:36:53;101672.38;;;27.56;42.54
53960;BME280;39866;48.638;-2.020;2022-08-11T00:39:21;101671.78;;;27.53;42.96
53960;BME280;39866;48.638;-2.020;2022-08-11T00:45:02;101676.47;;;27.51;42.80
53960;BME280;39866;48.638;-2.020;2022-08-11T00:56:22;101675.75;;;27.49;42.84
53960;BME280;39866;48.638;-2.020;2022-08-11T01:15:13;101687.09;;;27.44;43.10
53960;BME280;39866;48.638;-2.020;2022-08-11T01:21:05;101678.47;;;27.28;43.81
53960;BME280;39866;48.638;-2.020;2022-08-11T01:32:59;101677.09;;;27.22;44.21
53960;BME280;39866;48.638;-2.020;2022-08-11T01:46:30;101673.75;;;27.19;43.91
53960;BME280;39866;48.638;-2.020;2022-08-11T01:49:21;101666.81;;;27.14;44.48
53960;BME280;39866;48.638;-2.020;2022-08-11T01:54:27;101665.31;;;27.10;44.63
53960;BME280;39866;48.638;-2.020;2022-08-11T01:59:51;101667.56;;;27.05;44.62
53960;BME280;39866;48.638;-2.020;2022-08-11T02:05:20;101670.53;;;27.02;44.93
53960;BME280;39866;48.638;-2.020;2022-08-11T02:11:02;101663.34;;;27.01;44.51
53960;BME280;39866;48.638;-2.020;2022-08-11T02:14:14;101672.53;;;27.00;44.67
53960;BME280;39866;48.638;-2.020;2022-08-11T02:22:32;101665.59;;;26.96;44.73
53960;BME280;39866;48.638;-2.020;2022-08-11T02:25:37;101662.09;;;26.94;44.91
53960;BME280;39866;48.638;-2.020;2022-08-11T02:28:22;101664.25;;;26.90;45.06
53960;BME280;39866;48.638;-2.020;2022-08-11T02:31:12;101672.69;;;26.87;45.10
53960;BME280;39866;48.638;-2.020;2022-08-11T02:34:09;101665.88;;;26.82;45.07
53960;BME280;39866;48.638;-2.020;2022-08-11T02:36:51;101670.34;;;26.83;44.97
53960;BME280;39866;48.638;-2.020;2022-08-11T02:39:21;101671.22;;;26.83;44.76
53960;BME280;39866;48.638;-2.020;2022-08-11T02:41:50;101679.53;;;26.82;45.02
53960;BME280;39866;48.638;-2.020;2022-08-11T02:50:35;101672.84;;;26.75;45.02
53960;BME280;39866;48.638;-2.020;2022-08-11T02:53:25;101667.63;;;26.72;45.13
53960;BME280;39866;48.638;-2.020;2022-08-11T02:56:10;101669.50;;;26.71;45.31
53960;BME280;39866;48.638;-2.020;2022-08-11T03:02:05;101667.63;;;26.72;45.33
53960;BME280;39866;48.638;-2.020;2022-08-11T03:04:58;101663.66;;;26.64;45.20
53960;BME280;39866;48.638;-2.020;2022-08-11T03:13:51;101660.94;;;26.64;45.27
53960;BME280;39866;48.638;-2.020;2022-08-11T03:16:47;101663.78;;;26.63;45.25
53960;BME280;39866;48.638;-2.020;2022-08-11T03:19:29;101660.31;;;26.61;45.07
53960;BME280;39866;48.638;-2.020;2022-08-11T03:22:29;101655.97;;;26.58;45.18
53960;BME280;39866;48.638;-2.020;2022-08-11T03:25:02;101668.88;;;26.56;45.04
53960;BME280;39866;48.638;-2.020;2022-08-11T03:27:52;101667.41;;;26.52;45.35
53960;BME280;39866;48.638;-2.020;2022-08-11T03:30:28;101669.41;;;26.50;45.33
53960;BME280;39866;48.638;-2.020;2022-08-11T03:39:04;101665.91;;;26.48;45.52
53960;BME280;39866;48.638;-2.020;2022-08-11T03:41:35;101671.59;;;26.45;45.71
53960;BME280;39866;48.638;-2.020;2022-08-11T03:47:42;101660.06;;;26.41;46.11
53960;BME280;39866;48.638;-2.020;2022-08-11T03:50:30;101669.50;;;26.37;46.20
53960;BME280;39866;48.638;-2.020;2022-08-11T03:53:11;101666.88;;;26.36;46.13
53960;BME280;39866;48.638;-2.020;2022-08-11T03:58:55;101665.13;;;26.35;46.46
53960;BME280;39866;48.638;-2.020;2022-08-11T04:07:44;101658.19;;;26.31;47.57
53960;BME280;39866;48.638;-2.020;2022-08-11T04:13:27;101654.97;;;26.26;47.95
53960;BME280;39866;48.638;-2.020;2022-08-11T04:24:33;101659.91;;;26.21;48.04
53960;BME280;39866;48.638;-2.020;2022-08-11T04:32:45;101653.72;;;26.18;48.38
53960;BME280;39866;48.638;-2.020;2022-08-11T04:39:04;101650.84;;;26.20;48.71
53960;BME280;39866;48.638;-2.020;2022-08-11T04:45:10;101651.72;;;26.21;48.64
53960;BME280;39866;48.638;-2.020;2022-08-11T05:01:23;101648.00;;;26.10;48.31
53960;BME280;39866;48.638;-2.020;2022-08-11T05:04:11;101659.16;;;26.07;48.36
53960;BME280;39866;48.638;-2.020;2022-08-11T05:07:48;101655.56;;;26.07;48.20
53960;BME280;39866;48.638;-2.020;2022-08-11T05:10:41;101654.06;;;26.03;48.35
53960;BME280;39866;48.638;-2.020;2022-08-11T05:16:12;101652.22;;;26.03;48.22
53960;BME280;39866;48.638;-2.020;2022-08-11T05:18:59;101652.34;;;26.02;48.02
53960;BME280;39866;48.638;-2.020;2022-08-11T05:21:50;101651.47;;;26.01;47.96
53960;BME280;39866;48.638;-2.020;2022-08-11T05:24:47;101654.19;;;26.01;48.40
53960;BME280;39866;48.638;-2.020;2022-08-11T05:27:40;101657.03;;;26.00;48.36
53960;BME280;39866;48.638;-2.020;2022-08-11T05:30:28;101667.09;;;25.99;48.67
53960;BME280;39866;48.638;-2.020;2022-08-11T05:33:21;101667.22;;;25.98;48.78
53960;BME280;39866;48.638;-2.020;2022-08-11T05:36:26;101666.09;;;26.00;48.65
53960;BME280;39866;48.638;-2.020;2022-08-11T05:39:00;101661.53;;;26.01;48.64
53960;BME280;39866;48.638;-2.020;2022-08-11T05:41:46;101658.91;;;25.99;48.60
53960;BME280;39866;48.638;-2.020;2022-08-11T05:44:31;101663.34;;;26.00;48.68
53960;BME280;39866;48.638;-2.020;2022-08-11T05:47:25;101658.91;;;25.99;49.07
53960;BME280;39866;48.638;-2.020;2022-08-11T05:50:12;101657.16;;;25.98;49.06
53960;BME280;39866;48.638;-2.020;2022-08-11T05:52:57;101666.22;;;25.99;49.35
53960;BME280;39866;48.638;-2.020;2022-08-11T05:55:43;101662.63;;;25.98;49.26
53960;BME280;39866;48.638;-2.020;2022-08-11T05:58:36;101660.03;;;25.97;49.52
53960;BME280;39866;48.638;-2.020;2022-08-11T06:01:03;101660.91;;;25.97;49.64
53960;BME280;39866;48.638;-2.020;2022-08-11T06:03:32;101663.63;;;25.97;50.15
53960;BME280;39866;48.638;-2.020;2022-08-11T06:06:20;101664.34;;;25.99;50.26
53960;BME280;39866;48.638;-2.020;2022-08-11T06:08:45;101668.09;;;25.98;50.31
53960;BME280;39866;48.638;-2.020;2022-08-11T06:11:11;101670.56;;;26.01;50.75
53960;BME280;39866;48.638;-2.020;2022-08-11T06:13:43;101662.84;;;25.95;51.14
53960;BME280;39866;48.638;-2.020;2022-08-11T06:16:10;101673.31;;;26.01;51.26
53960;BME280;39866;48.638;-2.020;2022-08-11T06:18:38;101670.22;;;26.06;51.11
53960;BME280;39866;48.638;-2.020;2022-08-11T06:21:08;101671.31;;;26.03;51.65
53960;BME280;39866;48.638;-2.020;2022-08-11T06:23:35;101666.84;;;26.02;51.61
53960;BME280;39866;48.638;-2.020;2022-08-11T06:26:07;101657.16;;;25.98;51.80
53960;BME280;39866;48.638;-2.020;2022-08-11T06:28:36;101658.78;;;26.01;51.76
53960;BME280;39866;48.638;-2.020;2022-08-11T06:31:11;101668.56;;;26.03;52.12
53960;BME280;39866;48.638;-2.020;2022-08-11T06:36:31;101663.88;;;26.05;51.79
53960;BME280;39866;48.638;-2.020;2022-08-11T06:41:53;101655.94;;;26.13;51.38
53960;BME280;39866;48.638;-2.020;2022-08-11T06:44:29;101665.38;;;26.09;50.66
53960;BME280;39866;48.638;-2.020;2022-08-11T06:47:04;101666.34;;;26.08;50.12
53960;BME280;39866;48.638;-2.020;2022-08-11T06:49:35;101666.34;;;26.08;49.38
53960;BME280;39866;48.638;-2.020;2022-08-11T06:52:28;101664.50;;;26.09;49.11
53960;BME280;39866;48.638;-2.020;2022-08-11T06:54:56;101668.84;;;26.11;48.46
53960;BME280;39866;48.638;-2.020;2022-08-11T06:57:31;101664.38;;;26.10;48.26
53960;BME280;39866;48.638;-2.020;2022-08-11T07:00:18;101673.19;;;26.14;47.98
53960;BME280;39866;48.638;-2.020;2022-08-11T07:11:26;101673.56;;;26.21;47.84
53960;BME280;39866;48.638;-2.020;2022-08-11T07:14:22;101675.94;;;26.25;47.92
53960;BME280;39866;48.638;-2.020;2022-08-11T07:17:10;101679.63;;;26.24;47.87
53960;BME280;39866;48.638;-2.020;2022-08-11T07:19:42;101677.91;;;26.23;47.45
53960;BME280;39866;48.638;-2.020;2022-08-11T07:22:30;101682.50;;;26.23;46.92
53960;BME280;39866;48.638;-2.020;2022-08-11T07:25:16;101668.25;;;26.30;46.66
53960;BME280;39866;48.638;-2.020;2022-08-11T07:28:08;101667.88;;;26.35;46.64
53960;BME280;39866;48.638;-2.020;2022-08-11T07:48:58;101673.56;;;26.09;55.98
53960;BME280;39866;48.638;-2.020;2022-08-11T07:51:42;101672.56;;;26.10;55.99
53960;BME280;39866;48.638;-2.020;2022-08-11T07:54:26;101676.28;;;26.09;55.96
53960;BME280;39866;48.638;-2.020;2022-08-11T07:56:53;101678.13;;;25.98;55.94
53960;BME280;39866;48.638;-2.020;2022-08-11T07:59:19;101674.91;;;25.92;56.03
53960;BME280;39866;48.638;-2.020;2022-08-11T08:02:04;101672.28;;;25.91;55.65
53960;BME280;39866;48.638;-2.020;2022-08-11T08:04:49;101670.31;;;25.93;55.70
53960;BME280;39866;48.638;-2.020;2022-08-11T08:07:36;101673.88;;;25.82;56.10
53960;BME280;39866;48.638;-2.020;2022-08-11T08:10:20;101669.50;;;25.80;56.32
53960;BME280;39866;48.638;-2.020;2022-08-11T08:13:05;101676.59;;;25.82;56.46
53960;BME280;39866;48.638;-2.020;2022-08-11T08:15:51;101671.41;;;25.90;56.24
53960;BME280;39866;48.638;-2.020;2022-08-11T08:18:37;101671.00;;;25.84;57.06
53960;BME280;39866;48.638;-2.020;2022-08-11T08:21:04;101664.94;;;25.80;56.67
53960;BME280;39866;48.638;-2.020;2022-08-11T08:23:38;101658.94;;;25.75;56.95
53960;BME280;39866;48.638;-2.020;2022-08-11T08:26:08;101675.72;;;25.82;57.11
53960;BME280;39866;48.638;-2.020;2022-08-11T08:28:54;101666.56;;;25.83;56.95
53960;BME280;39866;48.638;-2.020;2022-08-11T08:31:40;101666.06;;;25.78;57.38
53960;BME280;39866;48.638;-2.020;2022-08-11T08:34:06;101669.84;;;25.64;58.25
53960;BME280;39866;48.638;-2.020;2022-08-11T08:36:32;101663.81;;;25.83;57.76
53960;BME280;39866;48.638;-2.020;2022-08-11T08:38:57;101659.50;;;25.80;57.46
53960;BME280;39866;48.638;-2.020;2022-08-11T08:41:28;101657.28;;;25.85;57.70
53960;BME280;39866;48.638;-2.020;2022-08-11T08:43:57;101661.13;;;25.59;58.39
53960;BME280;39866;48.638;-2.020;2022-08-11T08:46:26;101652.13;;;25.69;58.03
53960;BME280;39866;48.638;-2.020;2022-08-11T08:48:56;101659.06;;;25.74;58.05
53960;BME280;39866;48.638;-2.020;2022-08-11T08:51:24;101650.75;;;25.75;58.43
53960;BME280;39866;48.638;-2.020;2022-08-11T08:54:03;101648.47;;;25.82;58.28
53960;BME280;39866;48.638;-2.020;2022-08-11T08:56:30;101650.69;;;25.88;57.87
53960;BME280;39866;48.638;-2.020;2022-08-11T08:59:00;101659.63;;;25.90;57.21
53960;BME280;39866;48.638;-2.020;2022-08-11T09:01:32;101651.03;;;25.72;57.39
53960;BME280;39866;48.638;-2.020;2022-08-11T09:04:00;101642.94;;;25.70;57.94
53960;BME280;39866;48.638;-2.020;2022-08-11T09:06:30;101639.50;;;25.80;57.67
53960;BME280;39866;48.638;-2.020;2022-08-11T09:08:56;101645.22;;;25.88;57.18
53960;BME280;39866;48.638;-2.020;2022-08-11T09:11:22;101644.34;;;25.76;57.31
53960;BME280;39866;48.638;-2.020;2022-08-11T09:14:06;101648.69;;;25.79;57.31
53960;BME280;39866;48.638;-2.020;2022-08-11T09:16:32;101649.84;;;25.63;57.88
53960;BME280;39866;48.638;-2.020;2022-08-11T09:18:59;101648.25;;;25.61;58.31
53960;BME280;39866;48.638;-2.020;2022-08-11T09:21:25;101651.28;;;25.45;58.70
53960;BME280;39866;48.638;-2.020;2022-08-11T09:23:51;101645.44;;;25.38;58.27
53960;BME280;39866;48.638;-2.020;2022-08-11T09:26:36;101640.88;;;25.50;57.48
53960;BME280;39866;48.638;-2.020;2022-08-11T09:29:31;101638.88;;;25.41;56.74
53960;BME280;39866;48.638;-2.020;2022-08-11T09:31:57;101643.34;;;25.42;56.23
53960;BME280;39866;48.638;-2.020;2022-08-11T09:34:24;101630.75;;;25.52;55.80
53960;BME280;39866;48.638;-2.020;2022-08-11T09:36:50;101629.03;;;25.62;56.65
53960;BME280;39866;48.638;-2.020;2022-08-11T09:39:36;101641.66;;;25.52;56.87
53960;BME280;39866;48.638;-2.020;2022-08-11T09:42:21;101644.13;;;25.55;56.41
53960;BME280;39866;48.638;-2.020;2022-08-11T09:44:48;101635.75;;;25.69;55.40
53960;BME280;39866;48.638;-2.020;2022-08-11T09:47:24;101637.00;;;25.77;54.71
53960;BME280;39866;48.638;-2.020;2022-08-11T09:50:01;101642.69;;;25.74;54.72
53960;BME280;39866;48.638;-2.020;2022-08-11T09:52:45;101622.56;;;25.52;54.58
53960;BME280;39866;48.638;-2.020;2022-08-11T09:55:13;101633.16;;;25.68;54.83
53960;BME280;39866;48.638;-2.020;2022-08-11T09:57:43;101626.81;;;25.67;55.77
53960;BME280;39866;48.638;-2.020;2022-08-11T10:00:29;101626.94;;;25.66;55.38
53960;BME280;39866;48.638;-2.020;2022-08-11T10:02:56;101630.09;;;25.84;55.41
53960;BME280;39866;48.638;-2.020;2022-08-11T10:05:22;101626.91;;;25.90;55.23
53960;BME280;39866;48.638;-2.020;2022-08-11T10:08:10;101620.84;;;26.09;53.68
53960;BME280;39866;48.638;-2.020;2022-08-11T10:10:37;101628.28;;;26.18;53.39
53960;BME280;39866;48.638;-2.020;2022-08-11T10:13:09;101630.50;;;26.24;52.97
53960;BME280;39866;48.638;-2.020;2022-08-11T10:15:35;101618.47;;;26.15;54.53
53960;BME280;39866;48.638;-2.020;2022-08-11T10:18:13;101620.22;;;26.16;54.86
53960;BME280;39866;48.638;-2.020;2022-08-11T10:20:59;101624.94;;;26.26;54.49
53960;BME280;39866;48.638;-2.020;2022-08-11T10:23:27;101623.47;;;26.22;49.83
53960;BME280;39866;48.638;-2.020;2022-08-11T10:26:13;101623.09;;;26.26;50.88
53960;BME280;39866;48.638;-2.020;2022-08-11T10:29:00;101623.69;;;26.30;50.79
53960;BME280;39866;48.638;-2.020;2022-08-11T10:31:26;101620.34;;;26.26;50.76
53960;BME280;39866;48.638;-2.020;2022-08-11T10:34:11;101619.88;;;26.21;50.74
53960;BME280;39866;48.638;-2.020;2022-08-11T10:36:43;101604.06;;;26.25;50.66
53960;BME280;39866;48.638;-2.020;2022-08-11T10:39:14;101601.25;;;26.37;51.63
53960;BME280;39866;48.638;-2.020;2022-08-11T10:41:43;101595.25;;;26.43;51.89
53960;BME280;39866;48.638;-2.020;2022-08-11T10:44:30;101587.22;;;26.42;53.32
53960;BME280;39866;48.638;-2.020;2022-08-11T10:47:00;101585.72;;;26.49;53.91
53960;BME280;39866;48.638;-2.020;2022-08-11T10:49:45;101583.97;;;26.37;55.25
53960;BME280;39866;48.638;-2.020;2022-08-11T10:52:31;101591.91;;;26.40;56.38
53960;BME280;39866;48.638;-2.020;2022-08-11T10:55:15;101586.09;;;26.45;56.60
53960;BME280;39866;48.638;-2.020;2022-08-11T10:57:59;101579.25;;;26.39;56.00
53960;BME280;39866;48.638;-2.020;2022-08-11T11:00:43;101573.81;;;26.39;56.42
53960;BME280;39866;48.638;-2.020;2022-08-11T11:03:09;101569.63;;;26.46;56.80
53960;BME280;39866;48.638;-2.020;2022-08-11T11:05:37;101574.28;;;26.66;56.42
53960;BME280;39866;48.638;-2.020;2022-08-11T11:08:11;101567.56;;;26.71;56.04
53960;BME280;39866;48.638;-2.020;2022-08-11T11:10:57;101569.78;;;26.77;55.65
53960;BME280;39866;48.638;-2.020;2022-08-11T11:13:24;101577.25;;;26.75;56.20
53960;BME280;39866;48.638;-2.020;2022-08-11T11:16:09;101577.25;;;26.63;55.87
53960;BME280;39866;48.638;-2.020;2022-08-11T11:18:55;101577.75;;;26.68;55.99
53960;BME280;39866;48.638;-2.020;2022-08-11T11:21:23;101569.03;;;26.75;56.00
53960;BME280;39866;48.638;-2.020;2022-08-11T11:23:57;101562.34;;;26.79;56.29
53960;BME280;39866;48.638;-2.020;2022-08-11T11:26:59;101564.41;;;26.86;55.97
53960;BME280;39866;48.638;-2.020;2022-08-11T11:29:30;101559.44;;;26.91;55.97
53960;BME280;39866;48.638;-2.020;2022-08-11T11:35:38;101549.22;;;26.93;55.62
53960;BME280;39866;48.638;-2.020;2022-08-11T11:38:09;101537.03;;;26.98;55.48
53960;BME280;39866;48.638;-2.020;2022-08-11T11:40:35;101532.72;;;26.95;54.18
53960;BME280;39866;48.638;-2.020;2022-08-11T11:43:03;101526.75;;;26.90;53.75
53960;BME280;39866;48.638;-2.020;2022-08-11T11:45:30;101524.38;;;26.97;53.67
53960;BME280;39866;48.638;-2.020;2022-08-11T11:47:58;101520.63;;;26.98;53.33
53960;BME280;39866;48.638;-2.020;2022-08-11T11:50:32;101523.97;;;27.01;53.08
53960;BME280;39866;48.638;-2.020;2022-08-11T11:53:04;101523.31;;;27.09;52.84
53960;BME280;39866;48.638;-2.020;2022-08-11T11:55:30;101523.84;;;27.03;52.25
53960;BME280;39866;48.638;-2.020;2022-08-11T11:57:57;101525.94;;;27.10;52.07
53960;BME280;39866;48.638;-2.020;2022-08-11T12:00:43;101521.69;;;27.17;52.68
53960;BME280;39866;48.638;-2.020;2022-08-11T12:03:49;101512.22;;;27.22;54.24
53960;BME280;39866;48.638;-2.020;2022-08-11T12:06:17;101517.81;;;27.20;54.61
53960;BME280;39866;48.638;-2.020;2022-08-11T12:08:43;101524.34;;;27.29;54.49
53960;BME280;39866;48.638;-2.020;2022-08-11T12:11:12;101513.69;;;27.26;54.75
53960;BME280;39866;48.638;-2.020;2022-08-11T12:14:05;101519.34;;;27.34;54.79
53960;BME280;39866;48.638;-2.020;2022-08-11T12:16:33;101508.88;;;27.39;54.37
53960;BME280;39866;48.638;-2.020;2022-08-11T12:19:00;101517.66;;;27.42;54.19
53960;BME280;39866;48.638;-2.020;2022-08-11T12:21:28;101508.34;;;27.45;54.22
53960;BME280;39866;48.638;-2.020;2022-08-11T12:23:56;101505.16;;;27.40;54.26
53960;BME280;39866;48.638;-2.020;2022-08-11T12:26:41;101506.63;;;27.44;54.41
53960;BME280;39866;48.638;-2.020;2022-08-11T12:29:20;101500.31;;;27.53;53.04
53960;BME280;39866;48.638;-2.020;2022-08-11T12:31:53;101497.44;;;27.55;51.80
53960;BME280;39866;48.638;-2.020;2022-08-11T12:34:19;101495.47;;;27.57;52.39
53960;BME280;39866;48.638;-2.020;2022-08-11T12:36:51;101499.38;;;27.64;51.99
53960;BME280;39866;48.638;-2.020;2022-08-11T12:39:21;101490.78;;;27.69;51.69
53960;BME280;39866;48.638;-2.020;2022-08-11T12:42:13;101482.19;;;27.52;51.08
53960;BME280;39866;48.638;-2.020;2022-08-11T12:44:59;101486.84;;;27.61;51.24
53960;BME280;39866;48.638;-2.020;2022-08-11T12:47:50;101490.44;;;27.62;50.28
53960;BME280;39866;48.638;-2.020;2022-08-11T12:50:35;101496.94;;;27.71;50.15
53960;BME280;39866;48.638;-2.020;2022-08-11T12:53:23;101497.59;;;27.74;50.07
53960;BME280;39866;48.638;-2.020;2022-08-11T12:55:52;101496.16;;;27.80;50.21
53960;BME280;39866;48.638;-2.020;2022-08-11T12:58:40;101500.56;;;27.71;49.32
53960;BME280;39866;48.638;-2.020;2022-08-11T13:01:06;101496.72;;;27.74;49.70
53960;BME280;39866;48.638;-2.020;2022-08-11T13:03:50;101485.94;;;27.82;48.35
53960;BME280;39866;48.638;-2.020;2022-08-11T13:06:35;101484.06;;;27.82;48.34
53960;BME280;39866;48.638;-2.020;2022-08-11T13:09:02;101496.16;;;27.80;49.18
53960;BME280;39866;48.638;-2.020;2022-08-11T13:11:29;101479.38;;;27.94;49.14
53960;BME280;39866;48.638;-2.020;2022-08-11T13:14:14;101481.09;;;27.95;49.17
53960;BME280;39866;48.638;-2.020;2022-08-11T13:16:41;101477.06;;;27.99;48.63
53960;BME280;39866;48.638;-2.020;2022-08-11T13:19:26;101478.53;;;28.03;48.68
53960;BME280;39866;48.638;-2.020;2022-08-11T13:21:52;101463.41;;;27.99;47.54
53960;BME280;39866;48.638;-2.020;2022-08-11T13:24:19;101463.41;;;27.99;47.44
53960;BME280;39866;48.638;-2.020;2022-08-11T13:26:45;101473.78;;;28.05;47.04
53960;BME280;39866;48.638;-2.020;2022-08-11T13:29:12;101459.38;;;28.03;46.13
53960;BME280;39866;48.638;-2.020;2022-08-11T13:31:39;101460.13;;;28.25;46.50
53960;BME280;39866;48.638;-2.020;2022-08-11T13:34:07;101464.16;;;28.21;46.78
53960;BME280;39866;48.638;-2.020;2022-08-11T13:36:33;101466.50;;;28.25;47.28
53960;BME280;39866;48.638;-2.020;2022-08-11T13:39:00;101464.38;;;28.38;46.48
53960;BME280;39866;48.638;-2.020;2022-08-11T13:41:27;101456.03;;;28.50;45.92
53960;BME280;39866;48.638;-2.020;2022-08-11T13:44:04;101460.38;;;28.62;45.25
53960;BME280;39866;48.638;-2.020;2022-08-11T13:46:31;101458.78;;;28.59;44.42
53960;BME280;39866;48.638;-2.020;2022-08-11T13:48:58;101456.91;;;28.79;43.14
53960;BME280;39866;48.638;-2.020;2022-08-11T13:51:25;101445.63;;;28.92;42.96
53960;BME280;39866;48.638;-2.020;2022-08-11T13:54:16;101460.66;;;28.98;42.28
53960;BME280;39866;48.638;-2.020;2022-08-11T13:56:47;101460.78;;;29.06;41.34
53960;BME280;39866;48.638;-2.020;2022-08-11T13:59:14;101460.59;;;29.27;41.09
53960;BME280;39866;48.638;-2.020;2022-08-11T14:01:47;101453.75;;;29.50;41.54
53960;BME280;39866;48.638;-2.020;2022-08-11T14:04:22;101457.97;;;30.09;40.17
53960;BME280;39866;48.638;-2.020;2022-08-11T14:06:52;101459.53;;;30.57;39.27
53960;BME280;39866;48.638;-2.020;2022-08-11T14:09:25;101445.97;;;30.74;39.13
53960;BME280;39866;48.638;-2.020;2022-08-11T14:11:56;101446.94;;;31.08;38.70
53960;BME280;39866;48.638;-2.020;2022-08-11T14:14:42;101445.59;;;31.13;39.05
53960;BME280;39866;48.638;-2.020;2022-08-11T14:17:12;101444.25;;;30.73;39.51
53960;BME280;39866;48.638;-2.020;2022-08-11T14:19:41;101430.63;;;30.18;40.66
53960;BME280;39866;48.638;-2.020;2022-08-11T14:22:09;101447.84;;;29.82;41.75
53960;BME280;39866;48.638;-2.020;2022-08-11T14:24:39;101437.28;;;29.60;42.39
53960;BME280;39866;48.638;-2.020;2022-08-11T14:27:08;101439.31;;;29.48;43.30
53960;BME280;39866;48.638;-2.020;2022-08-11T14:29:37;101433.97;;;29.47;42.65
53960;BME280;39866;48.638;-2.020;2022-08-11T14:32:07;101438.00;;;29.52;43.35
53960;BME280;39866;48.638;-2.020;2022-08-11T14:34:35;101428.00;;;29.24;43.82
53960;BME280;39866;48.638;-2.020;2022-08-11T14:37:09;101418.88;;;29.33;44.22
53960;BME280;39866;48.638;-2.020;2022-08-11T14:39:47;101419.72;;;29.33;43.35
53960;BME280;39866;48.638;-2.020;2022-08-11T14:42:16;101419.25;;;29.57;43.65
53960;BME280;39866;48.638;-2.020;2022-08-11T14:45:04;101415.03;;;29.53;42.82
53960;BME280;39866;48.638;-2.020;2022-08-11T14:47:52;101413.75;;;29.57;42.83
53960;BME280;39866;48.638;-2.020;2022-08-11T14:50:22;101415.47;;;29.58;42.22
53960;BME280;39866;48.638;-2.020;2022-08-11T14:52:50;101418.38;;;29.57;42.68
53960;BME280;39866;48.638;-2.020;2022-08-11T14:55:17;101408.69;;;29.53;41.38
53960;BME280;39866;48.638;-2.020;2022-08-11T14:58:03;101401.84;;;29.67;42.10
53960;BME280;39866;48.638;-2.020;2022-08-11T15:00:30;101407.97;;;29.60;41.42
53960;BME280;39866;48.638;-2.020;2022-08-11T15:02:56;101403.47;;;29.59;41.07
53960;BME280;39866;48.638;-2.020;2022-08-11T15:05:38;101402.63;;;29.86;41.90
53960;BME280;39866;48.638;-2.020;2022-08-11T15:08:05;101396.19;;;29.96;40.29
53960;BME280;39866;48.638;-2.020;2022-08-11T15:10:31;101392.38;;;30.06;40.67
53960;BME280;39866;48.638;-2.020;2022-08-11T15:12:57;101402.59;;;30.14;39.95
53960;BME280;39866;48.638;-2.020;2022-08-11T15:15:24;101404.03;;;30.36;40.68
53960;BME280;39866;48.638;-2.020;2022-08-11T15:18:11;101404.84;;;30.46;39.71
53960;BME280;39866;48.638;-2.020;2022-08-11T15:20:41;101409.69;;;30.52;39.64
53960;BME280;39866;48.638;-2.020;2022-08-11T15:23:25;101397.34;;;30.56;39.61
53960;BME280;39866;48.638;-2.020;2022-08-11T15:26:17;101402.38;;;30.61;39.33
53960;BME280;39866;48.638;-2.020;2022-08-11T15:28:48;101391.31;;;30.71;39.42
53960;BME280;39866;48.638;-2.020;2022-08-11T15:31:33;101391.44;;;30.69;39.86
53960;BME280;39866;48.638;-2.020;2022-08-11T15:34:07;101391.13;;;30.72;39.23
53960;BME280;39866;48.638;-2.020;2022-08-11T15:36:57;101389.50;;;30.79;38.89
53960;BME280;39866;48.638;-2.020;2022-08-11T15:39:49;101379.44;;;30.70;39.30
53960;BME280;39866;48.638;-2.020;2022-08-11T15:42:39;101379.38;;;30.80;38.81
53960;BME280;39866;48.638;-2.020;2022-08-11T15:45:27;101369.00;;;30.74;39.36
53960;BME280;39866;48.638;-2.020;2022-08-11T15:48:17;101373.88;;;30.80;38.82
53960;BME280;39866;48.638;-2.020;2022-08-11T15:50:47;101366.38;;;30.90;38.85
53960;BME280;39866;48.638;-2.020;2022-08-11T15:55:54;101374.84;;;30.97;39.09
53960;BME280;39866;48.638;-2.020;2022-08-11T15:58:22;101364.03;;;30.95;38.69
53960;BME280;39866;48.638;-2.020;2022-08-11T16:01:08;101371.44;;;30.77;38.46
53960;BME280;39866;48.638;-2.020;2022-08-11T16:03:59;101361.47;;;30.76;38.57
53960;BME280;39866;48.638;-2.020;2022-08-11T16:07:11;101365.69;;;30.88;39.18
53960;BME280;39866;48.638;-2.020;2022-08-11T16:09:51;101358.16;;;30.98;38.88
53960;BME280;39866;48.638;-2.020;2022-08-11T16:12:23;101363.03;;;31.04;39.47
53960;BME280;39866;48.638;-2.020;2022-08-11T16:14:52;101359.56;;;31.02;39.11
53960;BME280;39866;48.638;-2.020;2022-08-11T16:17:43;101350.50;;;31.10;39.37
53960;BME280;39866;48.638;-2.020;2022-08-11T16:20:10;101363.63;;;31.16;39.03
53960;BME280;39866;48.638;-2.020;2022-08-11T16:22:38;101366.00;;;31.11;37.59
53960;BME280;39866;48.638;-2.020;2022-08-11T16:25:10;101369.22;;;31.06;37.49
53960;BME280;39866;48.638;-2.020;2022-08-11T16:27:41;101361.38;;;31.12;37.34
53960;BME280;39866;48.638;-2.020;2022-08-11T16:30:09;101359.31;;;31.14;37.40
53960;BME280;39866;48.638;-2.020;2022-08-11T16:32:38;101356.19;;;31.08;36.92